createdAt,value
2019-05-03T00:02:12.185Z,22.82
2019-05-03T00:08:14.362Z,24.80
2019-05-03T00:14:16.848Z,19.57
2019-05-03T00:20:19.113Z,21.65
2019-05-03T00:26:22.591Z,22.02
2019-05-03T00:32:26.887Z,20.95
2019-05-03T00:38:29.213Z,17.15
2019-05-03T00:44:31.780Z,19.50
2019-05-03T00:50:34.242Z,18.87
2019-05-03T00:56:36.475Z,17.70
2019-05-03T01:02:38.793Z,17.87
2019-05-03T01:08:41.934Z,16.40
2019-05-03T01:14:46.079Z,15.98
2019-05-03T01:20:48.302Z,14.30
2019-05-03T01:26:52.431Z,10.75
2019-05-03T01:32:54.753Z,12.70
2019-05-03T01:38:57.190Z,11.22
2019-05-03T01:45:01.537Z,8.75
2019-05-03T01:51:05.370Z,7.97
2019-05-03T01:57:07.599Z,6.70
2019-05-03T02:03:14.588Z,7.80
2019-05-03T02:09:16.767Z,8.15
2019-05-03T02:15:19.200Z,6.65
2019-05-03T02:21:21.705Z,4.92
2019-05-03T02:27:24.062Z,6.40
2019-05-03T02:33:26.394Z,5.22
2019-05-03T02:39:29.789Z,5.58
2019-05-03T02:45:35.179Z,4.08
2019-05-03T02:51:37.370Z,4.53
2019-05-03T02:57:39.783Z,3.42
2019-05-03T03:03:42.121Z,4.87
2019-05-03T03:09:45.530Z,4.03
2019-05-03T03:15:50.233Z,3.10
2019-05-03T03:21:56.279Z,4.55
2019-05-03T03:28:00.852Z,4.75
2019-05-03T03:34:08.830Z,4.67
2019-05-03T03:40:12.205Z,2.90
2019-05-03T03:46:15.872Z,3.45
2019-05-03T03:52:19.921Z,3.92
2019-05-03T03:58:26.736Z,3.00
2019-05-03T04:04:28.536Z,4.03
2019-05-03T04:10:31.049Z,2.87
2019-05-03T04:16:38.252Z,5.22
2019-05-03T04:22:40.757Z,3.65
2019-05-03T04:28:45.396Z,3.22
2019-05-03T04:34:47.271Z,2.77
2019-05-03T04:40:50.814Z,4.08
2019-05-03T04:46:55.994Z,2.65
2019-05-03T04:52:57.333Z,3.45
2019-05-03T04:58:59.591Z,3.12
2019-05-03T05:05:02.112Z,3.35
2019-05-03T05:11:10.030Z,3.87
2019-05-03T05:17:12.214Z,5.75
2019-05-03T05:23:14.890Z,5.12
2019-05-03T05:29:19.253Z,3.40
2019-05-03T05:35:21.620Z,4.78
2019-05-03T05:41:24.542Z,3.95
2019-05-03T05:47:40.658Z,3.77
2019-05-03T05:53:44.783Z,5.35
2019-05-03T05:59:49.017Z,3.42
2019-05-03T06:05:51.785Z,2.98
2019-05-03T06:11:56.070Z,5.08
2019-05-03T06:18:00.354Z,4.87
2019-05-03T06:24:07.727Z,3.08
2019-05-03T06:30:28.955Z,2.77
2019-05-03T06:36:31.424Z,2.83
2019-05-03T06:42:35.521Z,4.00
2019-05-03T06:48:37.928Z,3.70
2019-05-03T06:54:40.335Z,4.05
2019-05-03T07:00:55.241Z,2.77
2019-05-03T07:07:15.400Z,2.02
2019-05-03T07:13:17.413Z,3.87
2019-05-03T07:19:19.656Z,2.70
2019-05-03T07:25:22.394Z,2.42
2019-05-03T07:31:25.533Z,3.42
2019-05-03T07:37:28.528Z,2.47
2019-05-03T07:43:31.228Z,2.95
2019-05-03T07:49:35.491Z,4.28
2019-05-03T07:55:56.580Z,3.30
2019-05-03T08:01:59.256Z,3.98
2019-05-03T08:08:01.730Z,5.65
2019-05-03T08:14:05.676Z,5.62
2019-05-03T08:20:08.176Z,10.28
2019-05-03T08:26:10.497Z,10.18
2019-05-03T08:32:35.141Z,11.35
2019-05-03T08:38:37.075Z,10.93
2019-05-03T08:44:39.564Z,11.33
2019-05-03T08:50:41.899Z,15.23
2019-05-03T08:56:45.154Z,10.98
2019-05-03T09:02:47.640Z,15.18
2019-05-03T09:08:49.905Z,16.93
2019-05-03T09:14:54.293Z,19.92
2019-05-03T09:20:56.615Z,17.85
2019-05-03T09:26:59.021Z,21.02
2019-05-03T09:33:01.343Z,21.57
2019-05-03T09:39:05.403Z,22.75
2019-05-03T09:45:08.493Z,19.00
2019-05-03T09:51:10.827Z,22.85
2019-05-03T09:57:15.252Z,21.02
2019-05-03T10:03:17.800Z,26.77
2019-05-03T10:09:20.778Z,25.30
2019-05-03T10:15:41.644Z,26.33
2019-05-03T10:21:48.340Z,24.12
2019-05-03T10:27:55.032Z,19.95
2019-05-03T10:33:59.471Z,18.90
2019-05-03T10:40:07.801Z,22.10
2019-05-03T10:46:09.241Z,19.87
2019-05-03T10:52:12.003Z,19.82
2019-05-03T10:58:18.968Z,18.07
2019-05-03T11:04:21.562Z,13.60
2019-05-03T11:10:25.259Z,17.30
2019-05-03T11:16:28.163Z,17.12
2019-05-03T11:22:30.509Z,17.82
2019-05-03T11:28:32.689Z,16.20
2019-05-03T11:34:36.862Z,14.75
2019-05-03T11:40:39.251Z,15.80
2019-05-03T11:46:44.534Z,14.58
2019-05-03T11:52:47.400Z,16.57
2019-05-03T11:58:49.994Z,14.90
2019-05-03T12:04:52.393Z,18.77
2019-05-03T12:10:59.763Z,13.83
2019-05-03T12:17:17.184Z,13.28
2019-05-03T12:23:06.398Z,14.30
2019-05-03T12:29:09.169Z,14.30
2019-05-03T12:35:11.438Z,12.80
2019-05-03T12:41:15.076Z,11.85
2019-05-03T12:47:17.571Z,13.70
2019-05-03T12:53:22.021Z,15.95
2019-05-03T12:59:30.958Z,15.20
2019-05-03T13:05:35.515Z,13.40
2019-05-03T13:11:51.787Z,13.72
2019-05-03T13:17:45.412Z,12.45
2019-05-03T13:23:47.883Z,11.10
2019-05-03T13:29:50.211Z,18.40
2019-05-03T13:35:52.581Z,17.17
2019-05-03T13:41:55.030Z,15.93
2019-05-03T13:48:04.821Z,21.35
2019-05-03T13:54:06.468Z,19.02
2019-05-03T14:00:09.190Z,19.37
2019-05-03T14:06:11.658Z,19.37
2019-05-03T14:12:15.464Z,16.25
2019-05-03T14:18:17.947Z,18.02
2019-05-03T14:24:20.244Z,11.90
2019-05-03T14:30:22.872Z,7.00
2019-05-03T14:36:25.274Z,6.55
2019-05-03T14:42:27.621Z,5.72
2019-05-03T14:48:30.018Z,5.58
2019-05-03T14:54:34.562Z,6.30
2019-05-03T15:00:45.429Z,4.47
2019-05-03T15:06:47.858Z,6.03
2019-05-03T15:12:50.354Z,5.95
2019-05-03T15:18:54.751Z,5.97
2019-05-03T15:24:57.343Z,5.37
2019-05-03T15:30:59.805Z,6.78
2019-05-03T15:37:02.135Z,9.05
2019-05-03T15:43:10.354Z,11.95
2019-05-03T15:49:16.366Z,13.30
2019-05-03T15:55:22.325Z,10.50
2019-05-03T16:01:25.089Z,8.05
2019-05-03T16:07:27.599Z,10.68
2019-05-03T16:13:30.062Z,15.80
2019-05-03T16:19:32.425Z,14.25
2019-05-03T16:25:35.622Z,13.22
2019-05-03T16:31:38.077Z,11.30
2019-05-03T16:37:41.219Z,12.40
2019-05-03T16:43:45.551Z,12.78
2019-05-03T16:49:47.879Z,10.82
2019-05-03T16:55:50.228Z,9.65
2019-05-03T17:01:52.746Z,10.60
2019-05-03T17:08:15.281Z,9.63
2019-05-03T17:14:17.773Z,10.53
2019-05-03T17:20:20.919Z,8.98
2019-05-03T17:26:24.872Z,8.30
2019-05-03T17:32:27.739Z,10.78
2019-05-03T17:38:30.130Z,10.43
2019-05-03T17:44:37.113Z,11.33
2019-05-03T17:50:39.609Z,8.83
2019-05-03T17:57:00.074Z,9.28
2019-05-03T18:03:04.701Z,8.95
2019-05-03T18:09:09.714Z,9.20
2019-05-03T18:15:12.133Z,9.30
2019-05-03T18:21:15.356Z,12.35
2019-05-03T18:27:17.695Z,10.98
2019-05-03T18:33:20.146Z,7.58
2019-05-03T18:39:22.550Z,8.90
2019-05-03T18:45:28.298Z,10.88
2019-05-03T18:51:30.636Z,9.48
2019-05-03T18:57:33.007Z,13.65
2019-05-03T19:03:35.847Z,9.15
2019-05-03T19:09:40.819Z,9.13
2019-05-03T19:15:43.715Z,12.00
2019-05-03T19:21:47.007Z,12.93
2019-05-03T19:27:50.072Z,12.50
2019-05-03T19:33:52.486Z,10.48
2019-05-03T19:39:55.382Z,10.48
2019-05-03T19:45:57.676Z,12.53
2019-05-03T19:52:00.128Z,13.58
2019-05-03T19:58:02.792Z,14.90
2019-05-03T20:04:10.102Z,17.42
2019-05-03T20:10:14.630Z,13.85
2019-05-03T20:16:17.040Z,13.28
2019-05-03T20:22:19.352Z,12.70
2019-05-03T20:28:21.723Z,13.83
2019-05-03T20:34:24.859Z,15.15
2019-05-03T20:40:27.479Z,11.63
2019-05-03T20:46:34.552Z,14.23
2019-05-03T20:52:37.798Z,11.83
2019-05-03T20:58:40.234Z,13.62
2019-05-03T21:04:42.885Z,11.43
2019-05-03T21:10:46.162Z,13.13
2019-05-03T21:16:50.992Z,13.15
2019-05-03T21:22:54.780Z,13.22
2019-05-03T21:28:57.150Z,14.00
2019-05-03T21:34:59.512Z,14.25
2019-05-03T21:41:02.406Z,12.98
2019-05-03T21:47:12.692Z,14.53
2019-05-03T21:53:15.731Z,14.47
2019-05-03T21:59:18.036Z,14.85
2019-05-03T22:05:20.837Z,17.23
2019-05-03T22:11:25.013Z,15.40
2019-05-03T22:24:35.636Z,19.17
2019-05-03T22:30:38.055Z,17.20
2019-05-03T22:36:41.516Z,19.75
2019-05-03T22:42:44.810Z,15.43
2019-05-03T22:48:47.212Z,14.30
2019-05-03T22:54:49.559Z,15.38
2019-05-03T23:00:51.859Z,14.65
2019-05-03T23:06:55.507Z,13.83
2019-05-03T23:12:57.998Z,13.90
2019-05-03T23:33:08.738Z,19.17
2019-05-03T23:39:10.967Z,15.20
2019-05-03T23:45:14.891Z,15.53
2019-05-03T23:51:35.080Z,16.27
2019-05-03T23:57:37.598Z,16.15
